Date,TemperatureHighF,TemperatureAvgF,TemperatureLowF,DewpointHighF,DewpointAvgF,DewpointLowF,HumidityHigh,HumidityAvg,HumidityLow,PressureMaxIn,PressureMinIn,WindSpeedMaxMPH,WindSpeedAvgMPH,GustSpeedMaxMPH,PrecipitationSumIn
2013-1-1,49.9,46.0,42.5,46.8,41.5,18.6,95,85,38,27.52,27.37,5,0,5,0.85
2013-1-2,45.5,38.0,35.5,44.2,36.8,34.4,96,96,95,27.51,27.34,5,1,5,0.06
2013-1-3,36.2,33.1,27.0,34.9,31.1,23.8,96,93,83,27.67,27.46,5,0,5,0.01
2013-1-4,38.7,29.8,23.0,27.8,21.9,16.3,93,74,44,27.72,27.62,8,1,8,0.00
2013-1-5,48.1,36.1,25.0,30.1,23.8,18.4,79,63,34,27.70,27.60,4,0,4,0.02
2013-1-6,39.2,35.8,34.0,34.7,31.8,29.3,95,86,72,27.61,27.49,8,1,8,0.03
2013-1-7,49.3,35.5,25.4,34.6,27.2,22.9,92,74,45,27.72,27.57,5,1,5,0.00
2013-1-8,55.8,44.3,33.3,45.7,36.6,25.2,87,75,63,27.77,27.68,5,0,5,0.00
2013-1-9,60.5,54.7,49.1,54.6,50.6,45.7,92,86,79,27.87,27.74,2,0,2,0.00
2013-1-10,63.0,57.1,52.9,53.5,50.3,47.6,91,78,64,27.86,27.66,8,1,8,0.01
2013-1-11,61.2,57.3,53.3,58.6,55.2,50.7,94,92,90,27.66,27.55,11,1,11,0.40
2013-1-12,70.2,62.1,58.7,62.4,57.6,53.8,95,85,68,27.62,27.52,4,0,4,0.07
2013-1-13,67.7,61.0,58.0,59.0,55.3,52.6,92,81,69,27.56,27.47,6,1,6,0.32
2013-1-14,59.2,55.6,46.1,57.3,53.8,44.3,96,94,92,27.59,27.46,5,0,5,1.52
2013-1-15,58.7,56.5,52.2,57.2,55.0,50.8,96,95,95,27.54,27.40,3,0,3,2.94
2013-1-16,58.7,54.4,50.4,57.2,53.0,49.2,96,95,94,27.45,27.35,8,1,8,0.55
2013-1-17,53.6,46.2,34.6,52.2,44.6,33.2,96,94,82,27.49,27.08,12,1,12,0.16
2013-1-18,44.5,32.8,27.0,29.8,24.4,19.3,84,71,50,27.86,27.59,12,1,16,0.00
2013-1-19,49.0,37.1,29.7,31.3,24.8,20.4,76,63,36,27.79,27.59,5,0,5,0.02
2013-1-20,50.9,41.7,36.4,34.3,28.7,24.0,71,60,46,27.59,27.48,8,1,8,0.02
2013-1-21,44.1,36.5,27.4,29.9,23.3,10.7,79,60,40,27.50,27.44,10,2,10,0.00
2013-1-22,32.6,25.0,19.1,12.7,7.1,4.1,58,47,32,27.60,27.45,10,3,10,0.00
2013-1-23,40.3,31.3,23.8,27.6,16.5,6.0,67,54,45,27.67,27.51,7,2,7,0.00
2013-1-24,40.0,34.5,26.1,34.7,17.8,6.6,85,53,26,27.70,27.48,12,3,12,0.00
2013-1-25,37.3,30.4,25.0,35.6,22.4,8.2,96,74,45,27.70,27.47,7,1,7,0.00
2013-1-26,44.3,35.9,30.6,38.6,31.5,25.4,96,85,60,27.67,27.50,5,1,5,0.00
2013-1-27,52.9,39.5,31.1,36.0,30.0,24.8,82,69,51,27.80,27.65,4,0,4,0.00
2013-1-28,59.4,48.3,39.8,50.0,41.5,28.4,91,77,64,27.77,27.66,5,0,5,0.00
2013-1-29,62.5,56.4,48.8,56.7,52.0,44.7,93,85,77,27.67,27.41,5,0,5,0.00
2013-1-30,60.7,53.4,34.6,59.0,51.5,32.7,95,93,88,27.41,27.01,15,2,15,0.00
2013-1-31,36.0,31.3,26.5,33.0,22.7,18.4,95,71,52,27.46,27.10,15,2,15,0.00
2013-2-1,35.8,26.3,19.1,29.4,13.3,5.5,90,59,38,27.65,27.39,13,2,13,0.00
2013-2-2,32.9,27.1,18.9,30.1,18.5,5.2,95,71,44,27.66,27.44,5,0,5,0.00
2013-2-3,40.3,33.1,28.8,31.4,27.2,22.2,95,80,59,27.44,27.34,12,1,12,0.00
2013-2-4,48.2,35.5,24.8,33.3,24.8,19.6,82,66,48,27.49,27.37,5,0,5,0.00
2013-2-5,49.5,41.8,37.6,39.7,31.6,21.9,90,68,47,27.44,27.33,5,1,5,0.00
2013-2-6,55.1,42.4,36.4,40.0,35.0,26.3,95,78,33,27.58,27.43,4,1,4,0.00
2013-2-7,50.0,46.2,43.6,41.1,35.1,23.7,86,67,42,27.57,27.33,4,0,5,0.00
2013-2-8,46.6,42.8,31.5,43.6,39.4,25.7,95,88,58,27.52,27.31,14,1,14,0.00
2013-2-9,58.9,38.7,25.4,33.8,26.1,22.1,88,64,32,27.65,27.48,5,0,5,0.00
2013-2-10,53.3,45.1,40.7,44.7,30.5,22.1,91,59,34,27.69,27.50,6,1,6,0.00
2013-2-11,52.2,48.3,41.6,50.1,45.3,37.8,94,89,78,27.53,27.43,7,1,7,0.00
2013-2-12,50.0,41.7,34.7,37.9,34.2,29.5,92,76,50,27.49,27.26,6,0,6,0.00
2013-2-13,49.3,40.1,30.6,44.3,36.7,28.4,93,88,76,27.31,27.12,9,2,9,0.00
2013-2-14,48.6,36.3,28.3,33.5,28.8,26.5,95,76,45,27.44,27.31,8,1,8,0.00
2013-2-15,54.2,40.6,33.5,38.3,31.9,27.6,92,73,41,27.48,27.37,9,1,9,0.58
2013-2-16,33.8,27.7,21.2,31.1,21.3,9.1,91,77,51,27.40,27.28,18,2,18,0.10
2013-2-17,35.6,25.4,17.8,13.9,9.8,5.4,67,52,39,27.59,27.39,12,3,12,0.00
2013-2-18,56.7,39.1,27.0,30.3,19.8,10.9,52,46,36,27.67,27.49,5,1,5,0.00
2013-2-19,46.4,38.8,32.4,39.6,25.6,12.1,93,62,33,27.51,27.35,13,2,13,0.00
2013-2-20,44.3,32.2,25.4,15.0,11.0,5.5,59,43,20,27.52,27.45,10,2,10,0.00
2013-2-21,63.4,41.4,26.1,35.3,18.8,8.2,84,43,18,27.56,27.39,6,0,6,0.00
2013-2-22,48.2,42.7,37.1,44.2,38.1,33.5,91,84,77,27.54,27.40,5,1,5,0.00
2013-2-23,57.4,49.3,42.3,52.1,45.8,39.3,94,88,77,27.44,27.25,8,1,8,0.00
2013-2-24,58.5,43.8,36.0,41.1,32.5,22.5,95,69,29,27.42,27.30,6,1,6,0.00
2013-2-25,52.2,43.9,34.9,38.4,29.6,23.2,87,58,45,27.43,27.25,7,1,7,0.00
2013-2-26,49.9,43.1,35.6,45.0,39.3,31.6,93,86,79,27.25,26.96,14,2,14,0.00
2013-2-27,54.9,38.2,32.4,35.3,31.7,28.2,92,78,48,27.24,27.11,10,2,10,0.00
2013-2-28,35.8,30.8,28.6,30.5,25.2,22.9,88,80,73,27.31,27.18,12,3,12,0.00
2013-3-1,34.2,30.3,27.9,28.4,26.6,23.3,94,86,78,27.32,27.26,6,2,6,0.00
2013-3-2,34.4,28.9,24.3,27.7,25.3,15.9,94,86,70,27.32,27.24,13,2,13,0.00
2013-3-3,34.4,25.5,21.4,18.0,15.7,12.2,78,66,49,27.38,27.29,11,2,11,0.00
2013-3-4,52.0,35.6,22.1,30.9,21.2,14.2,75,57,38,27.49,27.37,6,1,6,0.00
2013-3-5,51.1,43.7,29.2,48.2,37.9,24.7,93,81,54,27.45,27.07,14,1,14,0.00
2013-3-6,29.2,26.6,23.2,26.1,23.3,18.2,92,87,76,27.50,27.17,0,0,0,0.00
2013-3-7,50.9,32.9,23.4,33.3,26.7,21.3,94,79,50,27.59,27.46,8,1,8,0.00
2013-3-8,64.3,38.4,25.2,31.5,24.2,14.4,92,63,23,27.65,27.57,7,1,7,0.00
2013-3-9,61.7,45.3,37.8,32.0,24.6,20.7,53,45,30,27.66,27.60,5,0,5,0.00
2013-3-11,52.7,50.2,48.6,49.0,47.4,45.5,94,90,83,29.75,29.55,10,1,10,0.00
2013-3-12,51.3,41.4,33.3,47.4,34.9,27.6,96,79,48,29.78,29.55,9,2,9,0.00
2013-3-13,40.7,35.4,27.4,28.2,23.2,17.3,76,62,45,29.87,29.75,13,3,13,0.00
2013-3-14,44.3,26.8,21.1,26.3,16.7,14.5,78,66,39,29.96,29.86,13,2,13,0.00
2013-3-29,74.5,50.2,40.7,72.8,43.9,33.0,97,79,57,30.00,29.90,10,1,10,0.40
2013-3-30,66.8,52.5,42.7,48.3,39.2,34.9,90,63,34,29.90,29.75,5,1,5,0.30
2013-3-31,63.0,53.6,50.2,54.0,50.2,46.3,96,88,67,29.76,29.62,5,1,5,0.52
2013-4-1,61.6,52.8,46.4,51.7,43.0,32.3,96,73,42,29.75,29.60,16,2,16,0.01
2013-4-2,56.7,45.9,36.7,33.6,25.9,16.4,75,49,22,29.86,29.73,8,2,8,0.00
2013-4-3,63.5,50.0,39.1,33.3,27.8,22.4,60,43,27,29.89,29.80,4,1,4,0.00
2013-4-4,48.2,41.4,36.9,38.8,33.5,25.2,93,76,41,29.88,29.63,7,1,7,0.56
2013-4-5,62.1,48.4,40.0,43.1,37.0,26.9,96,70,30,29.80,29.63,13,2,13,0.01
2013-4-6,72.0,55.4,41.4,37.6,33.3,30.1,65,45,26,29.91,29.80,7,1,7,0.00
2013-4-7,74.5,58.8,46.8,45.4,38.0,29.7,57,47,33,29.92,29.83,7,1,7,0.00
2013-4-8,75.2,62.0,54.7,51.7,46.5,41.0,72,58,40,29.88,29.82,9,1,9,0.00
2013-4-9,84.8,67.6,58.0,56.4,51.0,48.0,73,57,36,29.96,29.85,7,1,7,0.00
2013-4-10,86.8,70.0,59.2,56.4,52.7,50.1,74,56,31,29.90,29.73,6,1,6,0.00
2013-4-11,79.7,67.1,58.5,61.0,54.4,50.0,93,65,46,29.74,29.49,6,1,6,0.84
2013-4-12,62.5,56.7,49.5,57.2,51.1,34.7,95,84,37,29.67,29.43,10,2,10,0.76
2013-4-13,70.9,56.0,43.0,40.1,34.6,27.9,79,48,23,29.79,29.67,8,2,8,0.00
2013-4-14,68.9,57.0,50.2,47.4,38.0,30.3,82,51,31,29.80,29.68,10,1,10,0.02
2013-4-15,80.5,61.6,51.7,57.8,51.4,46.4,88,71,43,29.91,29.68,6,1,6,0.02
2013-4-16,85.0,67.0,55.8,59.9,55.6,51.1,88,69,42,30.01,29.91,7,1,7,0.00
2013-4-17,82.8,67.4,59.6,60.8,57.6,53.8,93,72,44,29.99,29.83,7,1,11,0.52
2013-4-18,81.4,67.2,59.8,59.8,57.2,54.4,90,72,46,29.86,29.70,6,1,6,0.01
2013-4-19,65.2,56.1,40.0,60.5,51.2,32.3,94,84,73,29.73,29.54,11,2,11,1.18
2013-4-20,63.7,46.1,34.9,33.1,27.2,20.2,77,51,23,29.95,29.73,13,2,13,0.01
2013-4-21,73.1,53.7,42.5,37.1,31.2,26.6,59,44,25,30.05,29.94,6,1,6,0.00
2013-4-22,77.2,54.2,41.9,41.1,36.1,32.6,74,53,25,30.03,29.87,6,1,6,0.00
2013-4-23,81.9,56.9,42.1,44.8,36.1,26.2,64,47,26,29.94,29.81,5,1,5,0.00
2013-4-24,72.7,59.8,50.2,56.5,50.3,42.0,93,72,52,29.86,29.79,7,1,7,0.23
2013-4-25,72.9,51.2,40.7,47.3,36.6,21.2,96,65,18,30.02,29.85,9,2,9,0.01
2013-4-26,78.5,56.8,40.5,40.1,32.5,23.7,55,41,24,30.08,29.99,6,1,6,0.02
2013-4-27,57.6,52.9,49.3,50.6,45.6,39.3,86,77,55,30.08,29.89,5,0,5,0.52
2013-4-28,55.3,52.2,49.7,52.7,49.5,46.8,93,90,83,29.91,29.74,5,0,5,2.27
2013-4-29,78.1,59.9,50.9,55.4,49.8,43.8,93,73,34,29.77,29.69,7,1,7,0.01
2013-4-30,83.2,63.7,51.1,57.2,50.5,45.2,82,64,39,29.87,29.72,5,1,5,0.00
2013-5-1,77.2,63.1,53.1,56.3,52.1,48.6,86,69,45,29.94,29.86,4,1,4,0.00
2013-5-2,72.4,61.1,54.4,57.1,52.0,47.8,85,73,55,29.95,29.88,6,1,6,0.00
2013-5-3,65.9,57.9,53.1,53.0,50.6,47.2,86,77,59,29.90,29.72,9,1,9,0.01
2013-5-4,56.0,52.1,49.1,49.8,46.8,39.1,92,83,68,29.72,29.58,8,2,8,1.11
2013-5-5,61.0,53.8,47.0,55.2,49.9,44.6,94,87,75,29.58,29.47,9,1,9,1.37
2013-5-6,60.8,49.3,41.8,49.6,44.4,39.9,94,84,62,29.64,29.50,5,0,5,0.32
2013-5-7,73.4,55.1,45.0,47.9,44.6,41.0,91,70,35,29.71,29.59,10,1,10,0.00
2013-5-8,74.9,58.3,50.0,57.9,52.0,45.9,94,80,52,29.81,29.68,8,1,8,0.09
2013-5-9,83.9,65.2,53.6,58.5,52.6,48.4,91,68,33,29.88,29.78,10,1,10,0.00
2013-5-10,77.2,66.7,58.7,59.9,54.3,50.4,81,65,51,29.87,29.73,5,0,5,0.13
2013-5-11,76.0,61.7,55.8,62.8,56.6,52.3,94,84,60,29.76,29.65,14,0,14,0.38
2013-5-12,65.3,53.7,46.3,53.3,41.6,29.7,95,68,31,29.81,29.68,10,2,10,0.00
2013-5-13,65.5,51.5,41.4,33.9,31.0,24.5,64,47,29,29.91,29.80,11,2,11,0.00
2013-5-14,88.0,60.1,42.8,53.2,40.7,29.0,64,50,29,29.96,29.85,9,1,9,0.00
2013-5-15,88.9,70.2,59.9,56.2,51.3,45.8,73,54,29,29.93,29.79,8,2,8,0.00
2013-5-16,87.3,70.1,61.9,58.2,53.7,50.7,69,57,33,29.86,29.76,6,1,6,0.00
2013-5-17,82.3,69.0,63.0,61.5,54.8,49.4,72,62,41,29.88,29.80,5,0,5,0.00
2013-5-18,73.1,65.2,60.5,64.7,59.3,52.8,90,81,65,29.85,29.80,2,0,2,0.38
2013-5-19,73.1,65.0,59.8,66.3,61.4,57.4,93,88,77,29.86,29.75,6,0,6,0.38
2013-5-20,98.1,74.6,58.1,67.8,62.6,55.5,92,68,38,29.88,29.80,6,1,6,0.00
2013-5-21,97.4,73.7,65.2,69.8,63.1,56.9,90,72,39,29.84,29.72,8,1,8,0.01
2013-5-22,89.8,70.9,62.6,68.1,61.6,56.9,84,73,49,29.80,29.66,6,1,6,0.38
2013-5-23,77.8,66.8,61.0,62.0,57.7,51.5,94,74,48,29.75,29.68,15,2,15,0.04
2013-5-24,75.2,60.7,52.4,52.9,45.2,35.6,85,60,29,29.96,29.73,15,3,15,0.00
2013-5-25,80.1,59.5,44.5,47.1,38.7,32.8,73,49,24,30.03,29.93,7,1,7,0.00
2013-5-26,86.2,63.5,52.2,48.7,40.2,32.2,56,43,23,30.02,29.91,6,1,6,0.00
2013-6-2,81.5,71.7,66.4,71.9,65.9,62.6,91,82,71,29.76,29.68,7,0,7,0.85
2013-6-3,87.8,71.0,63.7,66.3,62.1,57.4,94,76,41,29.76,29.67,5,1,7,0.03
2013-6-4,95.8,70.9,58.5,64.2,59.0,55.4,90,69,34,29.82,29.74,7,1,7,0.00
2013-6-5,88.2,71.8,61.6,69.7,63.2,58.7,90,76,52,29.83,29.72,9,0,9,1.13
2013-6-6,82.1,69.6,60.7,71.6,63.9,57.8,92,82,66,29.73,29.56,2,0,2,0.12
2013-6-7,81.0,68.7,62.6,68.0,63.1,58.8,95,83,54,29.64,29.49,5,1,6,0.11
2013-6-8,87.5,68.4,60.7,65.3,60.9,58.1,94,78,44,29.87,29.63,5,0,5,0.00
2013-6-9,85.7,71.2,64.1,70.7,64.3,58.2,91,80,58,29.89,29.79,3,0,3,0.40
2013-6-10,94.9,70.4,63.7,69.2,63.1,59.0,93,80,40,29.79,29.71,9,0,9,0.55
2013-6-11,87.5,72.4,64.8,69.1,65.2,60.6,96,80,51,29.83,29.74,9,2,9,0.34
2013-6-12,94.7,77.5,68.0,74.2,67.7,62.8,88,73,44,29.86,29.78,8,1,8,0.00
2013-6-13,85.3,73.8,66.1,71.2,67.5,63.2,95,82,61,29.79,29.56,14,2,14,0.37
2013-6-14,86.4,70.1,58.5,63.5,55.0,47.9,92,62,33,29.81,29.64,10,2,10,0.00
2013-6-15,100.3,72.5,61.0,63.6,55.9,49.2,68,57,29,29.90,29.81,5,0,5,0.00
2013-6-16,97.9,73.3,62.3,68.3,60.1,53.4,83,64,38,29.92,29.81,4,0,5,0.04
2013-6-17,87.8,70.7,65.3,72.3,64.5,61.2,89,81,52,29.84,29.74,6,0,6,1.40
2013-6-18,82.4,69.2,64.6,73.3,65.5,62.2,94,88,68,29.74,29.63,7,1,7,0.29
2013-6-19,94.3,72.1,61.6,69.8,63.8,59.2,94,77,41,29.87,29.69,5,1,5,0.01
2013-6-20,85.5,71.2,61.9,69.8,62.6,57.7,87,75,55,29.98,29.86,4,0,4,0.00
2013-6-21,82.3,70.2,63.0,67.7,62.3,58.6,87,77,58,30.02,29.94,4,0,4,0.03
2013-6-22,98.5,71.8,59.8,68.8,61.0,56.7,90,71,37,30.00,29.88,4,0,4,0.00
2013-6-23,91.1,73.3,62.8,71.2,62.8,55.6,81,71,49,29.97,29.89,2,0,3,0.02
2013-6-24,92.2,74.5,65.2,71.7,65.4,61.6,91,75,49,29.99,29.89,5,0,5,0.04
2013-6-25,87.5,73.0,64.4,71.6,64.9,60.6,88,76,57,29.95,29.84,3,0,4,0.00
2013-6-26,91.3,74.0,67.0,76.0,67.2,62.5,91,80,55,29.86,29.74,8,1,8,0.67
2013-6-27,85.5,73.7,68.6,72.2,67.9,63.9,90,83,63,29.78,29.61,7,1,7,0.02
2013-6-28,85.0,72.9,67.0,72.0,67.0,63.2,95,83,54,29.67,29.49,14,1,14,0.50
2013-6-29,90.0,72.6,64.8,67.9,61.8,54.6,95,72,39,29.54,29.48,8,1,8,0.00
2013-6-30,93.2,72.9,61.9,69.4,60.5,54.7,79,66,44,29.60,29.51,3,0,3,0.00
2013-7-1,82.8,70.6,62.3,68.3,63.6,59.0,90,79,58,29.71,29.58,4,0,4,0.37
2013-7-2,93.8,71.4,63.7,70.5,64.0,59.3,90,79,46,29.88,29.70,3,0,3,0.14
2013-7-3,70.4,65.5,63.0,67.4,62.7,60.5,94,91,86,29.94,29.85,7,0,7,2.13
2013-7-4,79.9,67.9,63.7,72.7,65.0,61.8,95,91,78,29.94,29.88,3,0,3,0.90
2013-7-5,95.4,70.7,64.4,73.6,65.5,62.5,93,84,48,29.98,29.90,5,0,5,0.87
2013-7-6,81.0,69.5,65.7,72.2,65.8,63.0,94,88,70,29.94,29.87,2,0,3,2.07
2013-7-7,85.1,69.8,66.2,72.6,66.6,64.1,94,90,65,29.94,29.88,2,0,2,0.03
2013-7-8,88.9,78.8,67.5,73.8,68.4,65.2,94,72,58,29.97,29.89,5,1,5,0.00
2013-7-9,87.7,77.7,71.3,74.4,69.6,67.2,88,77,65,29.95,29.87,2,1,2,0.00
2013-7-10,85.1,74.0,68.2,72.2,68.1,65.5,94,83,59,29.90,29.78,2,0,2,0.01
2013-7-11,90.7,75.2,68.2,71.8,67.9,66.1,93,79,53,29.77,29.68,5,1,5,0.00
2013-7-12,92.9,74.3,65.2,73.5,67.0,60.8,94,79,51,29.76,29.68,7,1,7,0.46
2013-7-13,83.0,70.3,64.1,69.7,64.0,60.5,91,81,61,29.85,29.74,4,0,4,0.00
2013-7-14,77.9,70.3,66.2,70.6,66.0,61.9,92,86,76,30.00,29.84,5,1,5,0.32
2013-7-15,91.1,73.0,65.2,72.5,66.1,62.8,94,81,53,30.04,29.99,8,1,8,0.08
2013-7-16,99.4,81.4,69.8,75.5,69.9,64.1,84,70,43,30.09,30.02,2,0,2,0.00
2013-7-17,88.0,73.1,67.7,71.6,65.8,63.2,88,79,55,30.06,29.97,6,1,6,0.24
2013-7-18,101.0,83.5,66.6,74.6,70.1,61.6,89,66,43,30.02,29.87,4,0,4,0.01
2013-7-19,91.3,85.6,71.5,74.0,70.9,65.7,82,62,52,29.91,29.81,6,1,6,0.02
2013-7-20,92.9,75.2,68.0,77.0,68.4,64.7,90,80,57,29.84,29.73,5,0,5,0.11
2013-7-21,85.0,73.2,67.5,72.1,67.8,65.1,94,84,61,29.83,29.73,6,1,6,0.18
2013-7-22,92.5,78.4,66.8,72.8,68.8,64.6,93,74,52,29.79,29.67,2,1,2,0.01
2013-7-23,80.5,72.2,66.2,70.3,66.3,64.5,94,83,66,29.72,29.65,4,2,4,0.00
2013-7-24,89.5,77.7,69.5,72.9,67.9,60.8,87,72,58,29.66,29.63,6,1,6,0.17
2013-7-25,73.8,73.8,73.8,68.1,68.1,68.1,82,82,82,29.73,29.73,2,1,2,0.00
2013-7-26,94.9,80.0,68.8,75.1,68.1,63.2,83,69,48,29.86,29.78,2,0,2,0.51
2013-7-27,86.2,70.5,65.2,69.5,64.1,61.4,92,81,54,29.80,29.69,2,0,2,0.00
2013-7-28,81.0,70.6,64.8,66.4,62.9,59.1,92,78,56,29.83,29.71,8,1,8,0.00
2013-7-29,85.1,68.8,60.7,64.9,59.7,52.9,93,75,42,29.95,29.81,6,0,6,0.00
2013-7-30,91.8,72.2,59.4,66.3,59.8,54.5,87,67,42,29.98,29.90,3,0,3,0.00
2013-7-31,80.3,71.7,65.3,70.8,65.8,63.1,93,82,71,29.93,29.76,6,0,6,0.11
2013-8-1,86.8,73.0,67.0,70.3,66.3,61.4,95,80,50,29.78,29.71,5,1,6,0.01
2013-8-2,91.8,72.8,62.6,70.4,64.2,59.9,93,76,48,29.83,29.73,6,0,6,0.00
2013-8-3,81.2,71.8,65.5,68.0,64.4,60.9,89,78,60,29.84,29.78,6,1,6,0.00
2013-8-4,89.5,73.3,66.1,69.0,64.3,58.0,95,75,41,29.83,29.77,7,1,7,0.00
2013-8-5,84.1,71.4,62.1,67.1,61.1,56.3,85,71,45,29.84,29.77,5,0,5,0.00
2013-8-6,84.2,74.5,67.7,70.3,65.2,59.0,86,74,56,29.81,29.75,4,0,4,0.00
2013-8-7,83.0,72.4,68.8,73.0,67.4,64.9,91,84,70,29.84,29.77,3,0,3,0.86
2013-8-8,86.8,73.7,68.4,76.2,68.8,65.5,92,85,69,29.85,29.78,4,0,4,0.53
2013-8-9,90.4,75.5,67.7,76.2,69.5,64.9,91,82,61,29.89,29.81,4,0,4,0.08
2013-8-10,85.3,73.6,69.5,77.5,69.3,65.1,91,87,75,29.93,29.86,11,0,11,1.63
2013-8-11,85.0,73.3,66.8,74.5,68.5,65.0,94,85,70,29.94,29.86,6,1,6,0.09
2013-8-12,83.9,73.7,68.4,72.9,68.7,65.1,94,85,65,29.91,29.78,5,1,5,0.08
2013-8-13,86.4,72.0,68.0,73.2,68.1,65.9,95,88,62,29.80,29.67,7,1,7,0.85
2013-8-15,59.9,59.7,59.4,54.8,54.6,54.3,84,83,83,29.84,29.83,2,0,2,0.00
2013-8-16,78.5,65.2,58.1,64.9,57.9,53.6,87,78,62,29.86,29.79,3,0,3,0.00
2013-8-17,71.5,63.4,59.0,63.1,58.5,55.2,92,84,75,29.88,29.83,3,0,3,0.18
2013-8-18,76.1,64.4,60.8,68.2,61.3,58.7,93,90,76,29.94,29.85,2,0,2,0.37
2013-8-19,81.9,68.9,63.0,72.9,64.9,60.7,93,87,72,29.92,29.84,3,0,3,1.17
2013-8-20,86.4,71.0,62.3,72.9,65.5,60.3,93,83,63,29.95,29.86,3,0,3,0.00
2013-8-21,76.9,69.0,66.2,71.2,65.4,63.4,92,89,81,30.00,29.90,4,0,4,0.35
2013-8-22,82.1,70.8,65.5,70.7,66.0,62.3,94,85,66,29.95,29.84,6,0,6,0.02
2013-8-23,87.8,71.8,62.8,71.8,65.6,60.9,94,82,58,29.87,29.78,6,1,6,0.02
2013-8-24,83.9,71.0,64.3,71.2,63.8,57.3,88,79,61,30.02,29.84,4,0,4,0.00
2013-8-25,81.9,67.7,59.2,66.5,58.6,51.8,80,73,59,30.10,30.00,3,0,3,0.00
2013-8-26,81.4,67.4,58.0,65.8,59.8,54.1,90,77,57,30.06,29.91,5,0,5,0.00
2013-8-27,82.3,69.6,60.8,68.3,63.5,58.3,93,82,58,29.92,29.82,5,0,5,0.00
2013-8-28,86.0,72.5,64.6,71.9,66.5,61.8,95,82,62,29.85,29.77,6,0,6,0.00
2013-8-29,83.0,73.9,67.1,73.0,68.5,64.7,93,84,70,29.81,29.73,7,1,7,0.00
2013-8-30,86.8,78.3,67.5,73.7,70.0,65.3,93,77,58,29.82,29.73,3,0,5,0.00
2013-8-31,87.5,74.6,67.7,73.2,68.3,64.0,93,82,59,29.78,29.68,6,0,6,0.13
2013-9-1,83.7,72.1,67.1,73.2,67.6,63.5,93,86,69,29.73,29.64,8,0,8,0.36
2013-9-2,78.3,70.4,65.2,70.2,66.9,63.1,95,89,76,29.75,29.65,6,1,6,0.01
2013-9-3,80.5,71.2,63.7,70.6,65.8,61.8,95,84,63,29.78,29.65,10,1,10,0.49
2013-9-4,80.6,70.2,62.1,69.3,64.3,60.1,94,82,61,29.88,29.76,4,0,4,0.01
2013-9-5,81.9,70.7,62.6,69.0,64.4,60.7,94,82,59,29.90,29.85,4,0,4,0.00
2013-9-6,81.0,70.1,62.5,67.8,63.3,60.5,93,80,55,29.92,29.84,3,0,3,0.01
2013-9-7,80.8,69.8,60.8,67.3,62.5,58.0,91,79,59,29.89,29.78,5,0,5,0.00
2013-9-8,81.4,70.7,63.2,68.9,63.2,59.1,93,79,52,29.80,29.73,6,0,6,0.00
2013-9-9,87.1,72.4,65.2,71.3,64.9,60.8,89,78,58,29.91,29.79,2,0,2,0.00
2013-9-10,86.0,72.7,64.6,70.3,64.6,60.0,87,77,56,29.99,29.90,4,0,4,0.00
2013-9-11,85.0,72.4,63.7,69.8,64.7,60.8,91,78,56,29.99,29.88,5,0,5,0.02
2013-9-12,77.4,70.1,64.4,69.8,65.8,61.8,93,86,76,29.89,29.70,5,0,5,0.03
2013-9-13,72.9,67.0,56.5,63.1,56.7,48.2,95,70,54,29.67,29.62,8,2,8,0.01
2013-9-14,76.0,60.5,50.0,60.3,52.9,47.2,92,77,56,29.83,29.65,3,0,3,0.00
2013-9-15,77.8,65.0,56.7,63.9,57.7,51.9,90,78,60,29.91,29.83,3,0,3,0.00
2013-9-16,78.1,68.4,61.9,64.8,60.5,56.0,90,77,58,29.90,29.84,6,1,6,0.00
2013-9-17,75.8,66.7,59.8,62.8,58.3,53.8,86,75,58,29.97,29.87,3,0,4,0.00
2013-9-18,74.0,64.6,58.7,62.7,56.8,52.2,87,76,64,29.96,29.88,4,0,4,0.00
2013-9-19,76.9,65.3,56.9,64.6,59.5,54.3,93,82,64,29.92,29.83,6,0,6,0.00
2013-9-20,77.4,68.0,60.7,65.3,61.4,57.8,91,80,62,29.85,29.69,6,0,6,0.00
2013-9-21,66.2,64.0,58.9,63.5,61.1,57.2,95,90,83,29.71,29.46,6,1,6,1.38
2013-9-22,69.1,59.8,52.9,59.2,55.0,51.3,95,85,57,29.64,29.52,5,0,5,0.01
2013-9-23,76.0,61.9,55.1,62.5,55.6,51.8,91,81,61,29.78,29.64,4,0,4,0.00
2013-9-24,74.9,63.3,55.1,64.7,57.6,51.6,89,82,70,29.77,29.66,2,0,2,0.00
2013-9-25,68.4,61.9,58.7,63.9,58.9,56.1,93,90,84,29.66,29.58,3,0,3,2.00
2013-9-26,73.4,63.3,57.4,64.2,58.7,55.1,95,85,66,29.76,29.61,5,0,5,0.02
2013-9-27,72.4,61.6,52.9,58.9,55.5,50.3,92,81,60,29.86,29.76,4,0,4,0.00
2013-9-28,71.5,60.3,51.8,60.0,54.3,48.3,90,81,66,29.92,29.83,3,0,3,0.00
2013-9-29,70.2,58.8,49.9,57.9,52.3,46.4,89,80,64,29.87,29.75,3,0,3,0.00
2013-9-30,72.4,60.7,52.9,61.0,54.5,50.0,92,81,64,29.80,29.73,2,0,2,0.00
2013-10-1,71.5,62.0,54.4,59.0,55.0,50.6,89,78,59,29.89,29.79,5,0,5,0.00
2013-10-2,77.8,64.2,55.8,64.5,58.0,53.5,94,81,62,29.89,29.81,3,0,3,0.00
2013-10-3,77.8,66.3,60.7,65.2,58.9,56.0,85,78,63,29.88,29.81,4,0,4,0.00
2013-10-4,80.1,65.5,58.0,65.4,58.6,54.3,90,79,57,29.90,29.84,6,0,6,0.00
2013-10-5,82.4,67.6,60.5,67.3,61.1,57.5,91,80,58,29.87,29.78,2,0,2,0.00
2013-10-6,77.8,67.1,61.6,65.5,60.9,57.7,90,81,65,29.80,29.61,3,0,3,0.00
2013-10-7,68.4,58.3,51.3,60.7,54.6,48.4,95,88,61,29.71,29.57,6,1,6,0.00
2013-10-8,75.6,57.5,49.5,63.0,52.7,47.5,95,85,63,29.84,29.70,2,0,3,0.00
2013-10-9,71.6,58.0,49.5,60.3,52.5,46.7,91,82,66,29.88,29.80,5,0,5,0.00
2013-10-10,68.6,58.3,52.6,56.0,52.0,46.8,95,81,49,29.83,29.74,6,1,6,0.00
2013-10-11,70.6,59.1,50.8,57.7,52.2,48.1,92,79,55,29.77,29.69,6,1,6,0.11
2013-10-12,70.9,60.1,51.8,59.0,54.0,49.5,93,81,62,29.83,29.72,8,1,8,0.00
2013-10-13,71.3,62.0,54.9,62.0,56.5,51.7,90,82,69,29.91,29.82,7,0,7,0.00
2013-10-14,72.7,62.8,57.2,63.7,58.3,53.8,93,86,70,29.91,29.83,4,0,4,0.00
2013-10-15,70.2,60.6,54.5,59.9,55.5,51.9,92,84,68,29.86,29.74,4,0,4,0.00
2013-10-16,68.0,60.1,54.4,59.5,55.0,51.0,89,84,71,29.77,29.67,5,0,5,0.01
2013-10-17,67.0,60.5,55.4,63.9,58.1,53.8,95,92,89,29.69,29.60,8,1,8,0.33
2013-10-18,64.1,55.7,49.7,55.6,51.4,48.0,95,86,72,29.71,29.63,5,0,5,0.00
2013-10-19,57.8,52.7,51.5,54.4,50.7,48.9,95,93,87,29.67,29.61,2,0,2,0.01
2013-10-20,59.8,49.4,42.1,46.7,42.3,37.8,94,78,47,29.74,29.64,4,0,6,0.00
2013-10-21,65.3,49.3,45.0,50.9,44.0,40.6,91,82,57,29.79,29.69,4,0,4,0.00
2013-10-22,65.2,55.5,51.7,52.9,49.7,47.7,89,81,62,29.72,29.56,5,0,5,0.00
2013-10-23,50.9,46.1,35.3,47.4,41.1,29.3,93,83,61,29.69,29.49,13,3,13,0.00
2013-10-24,52.2,41.3,32.4,38.6,34.4,28.3,91,78,56,29.80,29.67,8,1,8,0.00
2013-10-25,48.4,38.1,28.6,35.9,26.0,18.0,87,65,38,29.94,29.80,10,1,16,0.00
2013-10-26,54.0,39.6,31.3,34.0,28.0,24.3,76,65,40,29.92,29.77,8,0,8,0.00
2013-10-27,59.4,51.6,45.0,48.8,41.7,31.1,84,69,57,29.81,29.72,6,1,6,0.00
2013-10-28,61.9,54.9,51.5,55.2,49.8,47.3,89,83,69,29.93,29.79,4,0,4,0.02
2013-10-29,64.6,52.3,45.4,54.9,48.1,42.9,92,86,60,29.98,29.90,5,0,5,0.01
2013-10-30,69.3,61.0,55.3,56.4,53.5,50.5,86,77,60,29.96,29.84,5,0,6,0.00
2013-10-31,66.4,61.8,57.2,58.0,55.3,50.9,90,79,70,29.85,29.51,4,0,4,0.01
2013-11-1,67.3,60.9,52.6,58.5,48.6,38.3,92,66,37,29.54,29.40,9,2,9,0.24
2013-11-2,57.1,50.5,43.2,45.9,39.0,33.9,84,65,51,29.68,29.48,12,2,12,0.01
2013-11-3,56.2,46.1,39.1,39.0,35.7,33.5,87,69,46,29.93,29.67,8,1,8,0.00
2013-11-4,56.5,46.5,41.0,38.9,34.0,30.6,70,62,49,30.03,29.93,5,0,5,0.00
2013-11-5,64.4,49.5,38.9,40.2,34.0,29.1,72,56,40,30.04,29.96,3,0,3,0.00
2013-11-6,68.6,57.4,50.8,55.0,49.7,33.8,88,76,53,29.98,29.77,4,0,4,0.00
2013-11-7,57.2,49.4,38.5,52.7,40.3,29.6,88,72,48,29.79,29.68,9,1,9,0.23
2013-11-8,53.5,42.6,34.7,30.0,22.8,13.4,73,48,22,29.91,29.78,12,1,12,0.00
2013-11-9,55.8,43.8,37.8,33.0,27.2,23.3,58,52,39,29.93,29.83,4,0,4,0.00
2013-11-10,61.6,50.3,41.8,37.4,30.7,25.5,65,49,26,29.90,29.83,8,1,8,0.00
2013-11-11,59.9,49.6,39.1,34.0,28.2,25.5,60,45,28,29.91,29.79,5,0,5,0.00
2013-11-12,52.4,40.7,24.8,38.4,27.0,13.1,74,59,46,29.96,29.74,20,3,20,0.00
2013-11-13,41.8,29.7,18.7,20.0,15.5,11.8,81,57,32,30.07,29.96,8,1,8,0.00
2013-11-14,34.0,32.2,30.6,16.9,14.6,12.7,52,48,45,30.00,29.97,2,0,2,0.00
2013-11-15,51.8,50.0,47.5,47.6,44.8,36.8,89,83,65,29.88,29.75,3,0,3,0.20
2013-11-16,65.2,56.4,50.4,55.8,51.1,46.9,90,83,71,29.85,29.77,3,0,3,0.00
2013-11-17,61.2,57.7,55.1,56.8,53.8,51.2,89,87,83,29.81,29.60,4,1,4,0.06
2013-11-18,60.8,53.4,43.7,58.2,38.8,26.8,93,61,34,29.68,29.57,14,2,14,0.14
2013-11-19,52.7,43.2,34.7,32.0,27.9,23.9,67,55,40,29.77,29.64,10,1,10,0.00
2013-11-20,50.9,41.8,34.6,31.2,26.9,22.6,67,56,42,29.92,29.76,5,1,5,0.00
2013-11-21,61.6,52.3,41.4,52.8,45.9,29.7,88,79,63,29.98,29.91,2,0,5,0.00
2013-11-22,64.1,58.2,54.0,58.3,54.2,50.9,91,86,80,29.94,29.81,4,0,4,0.02
2013-11-23,48.6,41.2,32.0,44.7,27.6,16.5,88,60,33,29.81,29.74,12,2,12,0.07
2013-11-24,40.7,30.1,21.8,22.3,13.9,8.3,73,53,29,29.97,29.79,10,1,10,0.00
2013-11-25,47.0,32.9,25.2,23.6,12.4,8.2,52,43,27,29.97,29.85,4,0,4,0.00
2013-11-26,59.8,48.2,45.7,52.6,43.6,41.9,88,84,75,29.73,29.71,4,0,4,0.13
2013-12-7,69.8,44.0,41.0,46.8,39.1,34.8,88,84,43,29.99,29.94,4,1,4,0.00
2013-12-8,51.7,44.7,42.7,50.0,42.2,39.8,94,91,90,29.96,29.84,4,1,4,0.87
2013-12-9,51.5,51.3,51.1,49.8,49.6,49.4,94,94,94,29.84,29.81,1,0,2,0.18
2013-12-17,36.7,36.5,36.4,24.2,24.0,23.4,60,60,60,29.83,29.83,11,3,11,0.00
2013-12-18,44.1,35.8,27.7,23.9,16.7,11.6,69,48,27,29.97,29.83,7,1,11,0.00
2013-12-19,61.4,49.5,40.3,28.4,22.7,14.7,41,35,28,30.01,29.91,3,0,3,0.00
2013-12-20,63.9,52.2,44.3,49.3,35.6,22.3,82,55,34,29.93,29.85,4,0,4,0.00
2013-12-21,66.1,58.0,54.7,61.8,53.8,49.0,90,86,81,29.86,29.70,6,1,6,0.01
2013-12-22,63.9,61.4,50.0,59.8,57.7,47.7,93,88,84,29.82,29.68,5,1,5,0.05
2013-12-23,50.2,39.5,31.3,48.1,37.9,29.9,96,94,90,29.91,29.78,6,2,6,0.07
2013-12-24,31.1,27.3,20.5,29.9,22.0,15.2,96,81,61,30.02,29.90,12,1,12,0.00
2013-12-25,39.4,29.2,20.5,25.2,19.9,15.8,82,69,54,30.08,29.96,4,0,4,0.00
2013-12-26,44.3,34.7,28.8,29.7,24.3,20.5,77,66,48,30.03,29.93,6,0,6,0.00
2013-12-27,47.0,38.1,29.9,30.4,25.1,22.1,74,60,42,30.07,29.98,5,0,5,0.00
2013-12-28,49.9,42.1,36.4,40.4,29.5,22.9,89,62,39,30.07,29.68,6,0,6,0.49
2013-12-29,45.0,41.0,37.6,42.6,38.9,36.3,95,92,88,29.73,29.60,5,1,5,0.27
2013-12-30,42.7,38.3,33.3,38.3,35.8,31.1,96,91,79,29.85,29.71,8,1,8,0.00
2013-12-31,41.4,33.4,29.0,31.4,26.3,19.8,95,77,45,30.01,29.82,7,1,7,0.00
2014-1-1,47.3,39.3,32.8,30.7,25.0,20.4,67,57,47,30.00,29.79,3,0,3,0.01
2014-1-2,44.6,36.3,18.5,42.2,31.4,14.4,95,83,67,29.80,29.47,15,2,15,0.41